Time;durP1;ratioP1;P1;durP2;ratioP2;P2;SDS_P1;SDS_P2;PMS_P1;PMS_P2;Temp;Humidity;BMP_temperature;BMP_pressure;BME280_temperature;BME280_humidity;BME280_pressure;Samples;Min_cycle;Max_cycle;Signal;HPM_P1;HPM_P2
2021/09/27 00:00:42;;;;;;;15.30;10.70;;;;;;;;;;5065500;28;20128;-45
2021/09/27 00:03:09;;;;;;;16.00;11.15;;;;;;;;;;5071875;28;20102;-45
2021/09/27 00:05:35;;;;;;;17.42;11.45;;;;;;;;;;5073117;28;20045;-46
2021/09/27 00:08:03;;;;;;;13.75;9.88;;;;;;;;;;5041998;28;20045;-46
2021/09/27 00:10:33;;;;;;;15.23;10.98;;;;;;;;;;5034166;28;20205;-47
2021/09/27 00:13:00;;;;;;;15.32;10.63;;;;;;;;;;5049600;28;20046;-44
2021/09/27 00:15:29;;;;;;;17.05;10.85;;;;;;;;;;5032153;28;20132;-44
2021/09/27 00:17:56;;;;;;;15.27;11.00;;;;;;;;;;5034225;28;20049;-46
2021/09/27 00:20:23;;;;;;;18.17;11.40;;;;;;;;;;5032722;28;20124;-44
2021/09/27 00:22:50;;;;;;;15.98;11.07;;;;;;;;;;5033883;28;20133;-45
2021/09/27 00:25:18;;;;;;;18.08;12.18;;;;;;;;;;5033328;28;20076;-45
2021/09/27 00:27:44;;;;;;;17.90;11.60;;;;;;;;;;5033838;28;20124;-45
2021/09/27 00:30:12;;;;;;;17.25;11.60;;;;;;;;;;5033567;28;20509;-47
2021/09/27 00:32:39;;;;;;;16.88;11.65;;;;;;;;;;5038277;28;20040;-44
2021/09/27 00:35:07;;;;;;;17.15;12.13;;;;;;;;;;5044734;28;20048;-44
2021/09/27 00:37:34;;;;;;;18.15;11.88;;;;;;;;;;5039469;28;20140;-46
2021/09/27 00:40:02;;;;;;;18.95;11.65;;;;;;;;;;5033732;28;20041;-44
2021/09/27 00:42:29;;;;;;;16.30;11.27;;;;;;;;;;5032487;28;20045;-45
2021/09/27 00:44:56;;;;;;;17.35;11.38;;;;;;;;;;5032756;28;20068;-45
2021/09/27 00:47:23;;;;;;;18.20;11.90;;;;;;;;;;5033699;28;20053;-44
2021/09/27 00:49:53;;;;;;;14.23;10.38;;;;;;;;;;5033234;28;20065;-43
2021/09/27 00:52:20;;;;;;;15.55;10.50;;;;;;;;;;5033419;28;20041;-45
2021/09/27 00:54:48;;;;;;;16.80;11.57;;;;;;;;;;5032591;28;20048;-42
2021/09/27 00:57:20;;;;;;;14.52;10.68;;;;;;;;;;5033398;28;20041;-42
2021/09/27 00:59:49;;;;;;;15.48;11.10;;;;;;;;;;5033204;28;20152;-46
2021/09/27 01:02:17;;;;;;;14.68;10.45;;;;;;;;;;5033254;28;20038;-44
2021/09/27 01:04:44;;;;;;;15.18;10.43;;;;;;;;;;5032558;28;20042;-44
2021/09/27 01:07:10;;;;;;;18.55;11.02;;;;;;;;;;5033046;28;20049;-47
2021/09/27 01:09:37;;;;;;;15.07;10.68;;;;;;;;;;5033425;28;20045;-43
2021/09/27 01:12:25;;;;;;;16.00;10.48;;;;;;;;;;5033089;28;20056;-46
2021/09/27 01:15:27;;;;;;;17.08;10.88;;;;;;;;;;5032239;28;20053;-45
2021/09/27 01:18:19;;;;;;;15.52;10.73;;;;;;;;;;5010843;28;20046;-44
2021/09/27 01:20:54;;;;;;;14.85;10.68;;;;;;;;;;5032443;28;20437;-45
2021/09/27 01:23:40;;;;;;;15.85;11.13;;;;;;;;;;5032299;28;20477;-44
2021/09/27 01:26:25;;;;;;;14.82;10.68;;;;;;;;;;5032772;28;20053;-43
2021/09/27 01:28:52;;;;;;;16.40;9.63;;;;;;;;;;5032710;28;20087;-44
2021/09/27 01:31:27;;;;;;;14.25;10.30;;;;;;;;;;5032964;28;20057;-43
2021/09/27 01:33:58;;;;;;;18.05;10.85;;;;;;;;;;5046915;28;20064;-42
2021/09/27 01:36:28;;;;;;;16.20;10.30;;;;;;;;;;5051412;28;20033;-44
2021/09/27 01:39:12;;;;;;;15.60;10.85;;;;;;;;;;5032585;28;20042;-44
2021/09/27 01:41:43;;;;;;;15.98;11.25;;;;;;;;;;5032588;28;20046;-42
2021/09/27 01:44:13;;;;;;;15.73;10.48;;;;;;;;;;5031910;28;20051;-42
2021/09/27 01:46:55;;;;;;;16.50;12.07;;;;;;;;;;5032226;28;20037;-47
2021/09/27 01:49:25;;;;;;;15.85;10.60;;;;;;;;;;5030982;28;20050;-46
2021/09/27 01:51:52;;;;;;;14.90;10.88;;;;;;;;;;5032540;28;20048;-43
2021/09/27 01:54:21;;;;;;;16.58;10.65;;;;;;;;;;5031336;28;20041;-42
2021/09/27 01:57:00;;;;;;;12.98;10.20;;;;;;;;;;5032128;28;20042;-45
2021/09/27 01:59:45;;;;;;;18.05;12.07;;;;;;;;;;5031910;28;20055;-45
2021/09/27 02:02:21;;;;;;;15.07;10.80;;;;;;;;;;5031258;28;20109;-42
2021/09/27 02:05:04;;;;;;;14.85;10.52;;;;;;;;;;5031414;28;20451;-44
2021/09/27 02:07:37;;;;;;;15.18;10.50;;;;;;;;;;5030988;28;20082;-43
2021/09/27 02:10:07;;;;;;;17.00;10.70;;;;;;;;;;5031996;28;20173;-44
2021/09/27 02:12:46;;;;;;;15.52;11.48;;;;;;;;;;5032125;28;20052;-42
2021/09/27 02:15:26;;;;;;;16.65;10.90;;;;;;;;;;5031229;28;20121;-44
2021/09/27 02:18:01;;;;;;;15.80;11.38;;;;;;;;;;5031987;28;20046;-43
2021/09/27 02:20:42;;;;;;;16.23;10.85;;;;;;;;;;5032037;28;20041;-46
2021/09/27 02:23:11;;;;;;;16.83;11.48;;;;;;;;;;5031455;28;20044;-45
2021/09/27 02:25:39;;;;;;;14.90;10.98;;;;;;;;;;5031847;28;20038;-46
2021/09/27 02:28:14;;;;;;;15.93;11.15;;;;;;;;;;5031751;28;20116;-47
2021/09/27 02:30:41;;;;;;;13.93;10.63;;;;;;;;;;5031563;28;20065;-46
2021/09/27 02:33:26;;;;;;;17.40;11.90;;;;;;;;;;5039376;28;20040;-45
2021/09/27 02:35:57;;;;;;;15.35;11.25;;;;;;;;;;5051577;28;20049;-44
2021/09/27 02:38:24;;;;;;;16.95;11.35;;;;;;;;;;5035640;28;20511;-43
2021/09/27 02:40:53;;;;;;;16.73;11.48;;;;;;;;;;5032313;28;20041;-44
2021/09/27 02:43:20;;;;;;;18.48;12.07;;;;;;;;;;5029972;28;20434;-45
2021/09/27 02:45:47;;;;;;;16.88;12.23;;;;;;;;;;5031568;28;20136;-44
2021/09/27 02:48:21;;;;;;;16.52;11.60;;;;;;;;;;5031436;28;20057;-44
2021/09/27 02:50:50;;;;;;;16.13;10.73;;;;;;;;;;5031571;28;20676;-45
2021/09/27 02:53:17;;;;;;;13.73;10.88;;;;;;;;;;5030784;28;20079;-43
2021/09/27 02:55:44;;;;;;;15.77;11.38;;;;;;;;;;5030386;28;20055;-46
2021/09/27 02:58:16;;;;;;;15.20;10.95;;;;;;;;;;5040227;28;20041;-44
2021/09/27 03:00:49;;;;;;;14.40;10.95;;;;;;;;;;5041875;28;20043;-45
2021/09/27 03:03:19;;;;;;;15.18;10.77;;;;;;;;;;5058783;28;20045;-44
2021/09/27 03:06:06;;;;;;;15.60;11.07;;;;;;;;;;5052228;28;20136;-44
2021/09/27 03:08:52;;;;;;;19.50;12.10;;;;;;;;;;5035172;28;20045;-43
2021/09/27 03:11:28;;;;;;;15.80;11.60;;;;;;;;;;5035494;28;20132;-46
2021/09/27 03:13:58;;;;;;;16.33;11.20;;;;;;;;;;5034758;28;20041;-45
2021/09/27 03:16:25;;;;;;;16.50;11.68;;;;;;;;;;5035301;28;20120;-46
2021/09/27 03:18:51;;;;;;;18.15;12.30;;;;;;;;;;5035314;28;20049;-47
2021/09/27 03:21:37;;;;;;;16.58;12.20;;;;;;;;;;5035520;28;20132;-46
2021/09/27 03:24:15;;;;;;;16.88;12.00;;;;;;;;;;5034672;28;20055;-46
2021/09/27 03:26:49;;;;;;;17.95;11.77;;;;;;;;;;5035243;28;20056;-46
2021/09/27 03:29:26;;;;;;;15.18;11.05;;;;;;;;;;5034404;28;20048;-47
2021/09/27 03:31:56;;;;;;;16.20;11.70;;;;;;;;;;5035110;28;20137;-47
2021/09/27 03:34:26;;;;;;;14.75;10.52;;;;;;;;;;5052172;28;20033;-50
2021/09/27 03:37:00;;;;;;;14.77;10.82;;;;;;;;;;5053413;28;20082;-49
2021/09/27 03:39:53;;;;;;;13.48;9.93;;;;;;;;;;5035147;28;20071;-46
2021/09/27 03:42:23;;;;;;;14.02;10.63;;;;;;;;;;5011994;28;20449;-45
2021/09/27 03:44:54;;;;;;;17.20;11.60;;;;;;;;;;5034049;28;20046;-45
2021/09/27 03:47:26;;;;;;;13.05;10.77;;;;;;;;;;5034653;28;20063;-47
2021/09/27 03:50:08;;;;;;;15.85;11.13;;;;;;;;;;5054713;22;20148;-46
2021/09/27 03:52:35;;;;;;;14.80;10.43;;;;;;;;;;5052816;28;20478;-47
2021/09/27 03:55:18;;;;;;;17.92;10.57;;;;;;;;;;5053237;28;20091;-46
2021/09/27 03:57:48;;;;;;;15.27;10.52;;;;;;;;;;5036068;28;20041;-43
2021/09/27 04:00:23;;;;;;;16.92;11.30;;;;;;;;;;5033689;28;20128;-45
2021/09/27 04:02:49;;;;;;;12.82;8.95;;;;;;;;;;5033946;28;20046;-44
2021/09/27 04:05:17;;;;;;;12.02;9.50;;;;;;;;;;5033277;28;20045;-47
2021/09/27 04:08:07;;;;;;;14.10;10.23;;;;;;;;;;5033637;28;20045;-46
2021/09/27 04:10:46;;;;;;;13.50;10.07;;;;;;;;;;5033769;28;20041;-48
2021/09/27 04:13:12;;;;;;;14.35;9.50;;;;;;;;;;5033118;28;20046;-46
2021/09/27 04:15:48;;;;;;;13.93;10.57;;;;;;;;;;5033469;28;20064;-46
2021/09/27 04:18:27;;;;;;;15.68;10.15;;;;;;;;;;5033522;28;20038;-45
2021/09/27 04:20:54;;;;;;;15.65;10.48;;;;;;;;;;5032417;28;20056;-46
2021/09/27 04:23:23;;;;;;;15.10;9.85;;;;;;;;;;5032492;28;20041;-47
2021/09/27 04:25:50;;;;;;;12.23;9.60;;;;;;;;;;5033571;28;20132;-44
2021/09/27 04:28:16;;;;;;;12.82;9.07;;;;;;;;;;5033324;28;20483;-44
2021/09/27 04:31:12;;;;;;;13.90;9.90;;;;;;;;;;5033126;28;20086;-46
2021/09/27 04:33:51;;;;;;;13.93;10.05;;;;;;;;;;5045198;28;20049;-47
2021/09/27 04:36:20;;;;;;;14.65;11.05;;;;;;;;;;5045440;28;20064;-45
2021/09/27 04:38:48;;;;;;;14.23;10.32;;;;;;;;;;5038988;28;20045;-46
2021/09/27 04:41:30;;;;;;;13.88;10.15;;;;;;;;;;5033142;28;20128;-46
2021/09/27 04:43:56;;;;;;;17.58;11.18;;;;;;;;;;5032479;28;20129;-44
2021/09/27 04:46:35;;;;;;;15.18;10.38;;;;;;;;;;5032758;28;20041;-46
2021/09/27 04:49:05;;;;;;;19.60;10.65;;;;;;;;;;5032895;28;20038;-44
2021/09/27 04:51:41;;;;;;;14.82;10.60;;;;;;;;;;5033021;28;20047;-44
2021/09/27 04:54:13;;;;;;;15.18;9.60;;;;;;;;;;5032154;28;20041;-45
2021/09/27 04:56:58;;;;;;;15.05;9.60;;;;;;;;;;5032851;28;20053;-46
2021/09/27 04:59:39;;;;;;;14.52;10.35;;;;;;;;;;5033245;28;20076;-45
2021/09/27 05:02:17;;;;;;;17.52;10.02;;;;;;;;;;5033514;28;20045;-44
2021/09/27 05:04:51;;;;;;;15.75;9.50;;;;;;;;;;5032627;28;20049;-44
2021/09/27 05:07:36;;;;;;;14.55;10.23;;;;;;;;;;5032388;28;20051;-47
2021/09/27 05:10:21;;;;;;;15.77;10.10;;;;;;;;;;5032549;28;20100;-45
2021/09/27 05:12:51;;;;;;;14.13;10.15;;;;;;;;;;5032413;28;20137;-45
2021/09/27 05:15:17;;;;;;;15.55;10.25;;;;;;;;;;5031418;28;20044;-46
2021/09/27 05:17:56;;;;;;;16.02;9.75;;;;;;;;;;5031065;28;20037;-49
2021/09/27 05:20:29;;;;;;;15.60;10.20;;;;;;;;;;5032227;28;20128;-47
2021/09/27 05:23:05;;;;;;;15.82;10.35;;;;;;;;;;5032272;28;20056;-48
2021/09/27 05:25:43;;;;;;;17.25;10.73;;;;;;;;;;5048828;28;20052;-50
2021/09/27 05:28:29;;;;;;;18.92;10.20;;;;;;;;;;5031841;28;20482;-47
2021/09/27 05:31:09;;;;;;;15.30;9.98;;;;;;;;;;5032148;28;20073;-48
2021/09/27 05:33:36;;;;;;;13.77;10.50;;;;;;;;;;5044154;28;20136;-49
2021/09/27 05:36:11;;;;;;;15.25;9.82;;;;;;;;;;5050885;28;20449;-47
2021/09/27 05:39:10;;;;;;;17.65;11.00;;;;;;;;;;5032211;28;20049;-46
2021/09/27 05:41:37;;;;;;;14.05;9.88;;;;;;;;;;5023875;28;20046;-46
2021/09/27 05:44:16;;;;;;;15.98;10.35;;;;;;;;;;5047176;28;20033;-46
2021/09/27 05:46:48;;;;;;;13.63;9.80;;;;;;;;;;5032295;28;20042;-47
2021/09/27 05:49:19;;;;;;;15.73;10.18;;;;;;;;;;5048223;28;20075;-46
2021/09/27 05:51:50;;;;;;;14.38;9.73;;;;;;;;;;5052153;28;20463;-49
2021/09/27 05:54:17;;;;;;;16.08;9.15;;;;;;;;;;5049256;28;20044;-50
2021/09/27 05:57:07;;;;;;;11.25;7.88;;;;;;;;;;5051759;28;20375;-47
2021/09/27 06:00:06;;;;;;;10.80;8.02;;;;;;;;;;5049508;28;20040;-47
2021/09/27 06:02:38;;;;;;;11.20;8.02;;;;;;;;;;5028929;28;20037;-48
2021/09/27 06:05:25;;;;;;;11.65;8.07;;;;;;;;;;5049199;28;20051;-46
2021/09/27 06:08:15;;;;;;;12.95;8.70;;;;;;;;;;5050936;28;20053;-46
2021/09/27 06:10:41;;;;;;;13.00;7.38;;;;;;;;;;5049274;28;20052;-44
2021/09/27 06:13:21;;;;;;;11.70;8.10;;;;;;;;;;5050529;28;20045;-47
2021/09/27 06:15:50;;;;;;;13.07;8.48;;;;;;;;;;5051310;28;20195;-48
2021/09/27 06:18:20;;;;;;;11.73;8.55;;;;;;;;;;5045235;28;20044;-46
2021/09/27 06:20:46;;;;;;;11.07;8.15;;;;;;;;;;5050890;28;20048;-48
2021/09/27 06:23:21;;;;;;;9.70;7.20;;;;;;;;;;5050256;28;20052;-45
2021/09/27 06:25:56;;;;;;;12.50;8.48;;;;;;;;;;5037982;28;20076;-43
2021/09/27 06:28:23;;;;;;;10.75;7.57;;;;;;;;;;5049592;28;20045;-43
2021/09/27 06:30:54;;;;;;;11.40;7.90;;;;;;;;;;5048885;28;20060;-47
2021/09/27 06:33:23;;;;;;;11.15;7.78;;;;;;;;;;5051461;28;20068;-43
2021/09/27 06:35:52;;;;;;;12.48;8.38;;;;;;;;;;5051497;28;20140;-45
2021/09/27 06:38:25;;;;;;;13.80;8.13;;;;;;;;;;5031322;28;20042;-43
2021/09/27 06:40:53;;;;;;;11.15;7.60;;;;;;;;;;5030627;28;20080;-47
2021/09/27 06:43:22;;;;;;;13.30;8.10;;;;;;;;;;5039543;28;20116;-46
2021/09/27 06:45:49;;;;;;;10.45;7.47;;;;;;;;;;5043560;28;20417;-44
2021/09/27 06:48:16;;;;;;;13.40;8.88;;;;;;;;;;5031547;28;20112;-45
2021/09/27 06:50:43;;;;;;;11.55;7.15;;;;;;;;;;5036733;28;20564;-45
2021/09/27 06:53:10;;;;;;;11.52;8.07;;;;;;;;;;5048601;28;20064;-41
2021/09/27 06:55:37;;;;;;;11.88;7.68;;;;;;;;;;5047120;28;20137;-46
2021/09/27 06:58:04;;;;;;;9.13;7.25;;;;;;;;;;5050676;28;20047;-44
2021/09/27 07:00:31;;;;;;;11.00;7.18;;;;;;;;;;5035710;28;20041;-42
2021/09/27 07:02:58;;;;;;;9.73;7.10;;;;;;;;;;5042373;28;20380;-42
2021/09/27 07:05:25;;;;;;;11.88;7.88;;;;;;;;;;5052410;28;20566;-43
2021/09/27 07:07:52;;;;;;;9.88;7.18;;;;;;;;;;5067619;28;20045;-46
2021/09/27 07:10:21;;;;;;;12.57;7.75;;;;;;;;;;5041969;28;20125;-42
2021/09/27 07:12:48;;;;;;;10.27;7.88;;;;;;;;;;5054621;28;20564;-44
2021/09/27 07:15:15;;;;;;;9.25;7.07;;;;;;;;;;5050124;28;20136;-43
2021/09/27 07:17:41;;;;;;;9.73;7.47;;;;;;;;;;5050346;28;20055;-48
2021/09/27 07:20:11;;;;;;;9.13;7.15;;;;;;;;;;5032615;28;20049;-43
2021/09/27 07:22:38;;;;;;;10.57;7.60;;;;;;;;;;5050944;28;20037;-41
2021/09/27 07:25:07;;;;;;;11.23;7.70;;;;;;;;;;5049738;28;20040;-44
2021/09/27 07:27:34;;;;;;;10.18;7.57;;;;;;;;;;5048930;28;20037;-44
2021/09/27 07:30:02;;;;;;;9.70;7.95;;;;;;;;;;5043637;28;20041;-41
2021/09/27 07:32:29;;;;;;;9.80;7.10;;;;;;;;;;5049578;28;20045;-45
2021/09/27 07:34:56;;;;;;;9.73;6.95;;;;;;;;;;5048611;28;20131;-45
2021/09/27 07:37:23;;;;;;;8.60;6.57;;;;;;;;;;5043579;28;20106;-41
2021/09/27 07:39:50;;;;;;;7.18;5.65;;;;;;;;;;5049281;28;20048;-44
2021/09/27 07:42:16;;;;;;;9.95;7.28;;;;;;;;;;5048784;28;20033;-42
2021/09/27 07:44:43;;;;;;;8.88;6.05;;;;;;;;;;5050113;28;20048;-42
2021/09/27 07:47:10;;;;;;;9.73;6.82;;;;;;;;;;5047721;28;20041;-45
2021/09/27 07:49:36;;;;;;;9.65;6.47;;;;;;;;;;5050567;28;20048;-42
2021/09/27 07:52:04;;;;;;;8.80;6.45;;;;;;;;;;5051392;28;20053;-42
2021/09/27 07:54:31;;;;;;;8.23;6.18;;;;;;;;;;5053905;28;20120;-42
2021/09/27 07:56:58;;;;;;;10.10;6.85;;;;;;;;;;5043248;28;20037;-42
2021/09/27 07:59:24;;;;;;;8.73;6.45;;;;;;;;;;5045214;28;20041;-43
2021/09/27 08:01:51;;;;;;;10.18;6.50;;;;;;;;;;5050004;28;20045;-45
2021/09/27 08:04:19;;;;;;;10.25;6.50;;;;;;;;;;5053627;28;20107;-41
2021/09/27 08:06:47;;;;;;;9.80;7.15;;;;;;;;;;5036482;28;20417;-46
2021/09/27 08:09:13;;;;;;;9.02;6.97;;;;;;;;;;5035056;28;20045;-45
2021/09/27 08:11:42;;;;;;;9.57;7.00;;;;;;;;;;5053226;28;20045;-42
2021/09/27 08:14:10;;;;;;;8.70;7.20;;;;;;;;;;5052486;28;20417;-44
2021/09/27 08:16:42;;;;;;;9.05;6.80;;;;;;;;;;5044116;28;20048;-42
2021/09/27 08:19:09;;;;;;;10.88;7.57;;;;;;;;;;5067906;28;20043;-45
2021/09/27 08:21:36;;;;;;;9.48;6.88;;;;;;;;;;5064199;28;20033;-44
2021/09/27 08:24:03;;;;;;;11.13;6.78;;;;;;;;;;5044065;28;20045;-43
2021/09/27 08:26:30;;;;;;;8.60;6.82;;;;;;;;;;5055938;28;20048;-42
2021/09/27 08:28:56;;;;;;;9.05;7.00;;;;;;;;;;5067940;28;20047;-45
2021/09/27 08:31:23;;;;;;;10.45;7.30;;;;;;;;;;5060374;28;20068;-46
2021/09/27 08:33:51;;;;;;;10.13;7.20;;;;;;;;;;5061666;28;20090;-41
2021/09/27 08:36:21;;;;;;;11.98;6.93;;;;;;;;;;5068914;28;20087;-49
2021/09/27 08:38:48;;;;;;;11.20;7.60;;;;;;;;;;5056213;28;20430;-46
2021/09/27 08:41:27;;;;;;;10.07;8.18;;;;;;;;;;5066777;28;20039;-43
2021/09/27 08:44:03;;;;;;;11.38;7.65;;;;;;;;;;5053071;28;20045;-42
2021/09/27 08:46:42;;;;;;;9.88;7.80;;;;;;;;;;5048207;28;20053;-41
2021/09/27 08:49:18;;;;;;;10.20;7.65;;;;;;;;;;5063536;28;20413;-42
2021/09/27 08:51:45;;;;;;;14.73;8.43;;;;;;;;;;5062342;28;20156;-45
2021/09/27 08:54:16;;;;;;;10.02;7.93;;;;;;;;;;5053466;28;20550;-42
2021/09/27 08:56:56;;;;;;;10.98;8.65;;;;;;;;;;5067706;28;20040;-45
2021/09/27 08:59:23;;;;;;;11.50;8.00;;;;;;;;;;5040806;28;20191;-42
2021/09/27 09:01:53;;;;;;;9.48;7.65;;;;;;;;;;5053087;28;20120;-43
2021/09/27 09:04:29;;;;;;;8.98;7.50;;;;;;;;;;5052392;28;20422;-42
2021/09/27 09:07:07;;;;;;;11.15;7.95;;;;;;;;;;5041005;28;20041;-45
2021/09/27 09:09:41;;;;;;;10.60;7.90;;;;;;;;;;5048244;28;20439;-42
2021/09/27 09:12:15;;;;;;;13.25;7.75;;;;;;;;;;5060851;28;20044;-46
2021/09/27 09:14:55;;;;;;;9.65;7.20;;;;;;;;;;5055209;28;20521;-43
2021/09/27 09:17:31;;;;;;;10.02;7.47;;;;;;;;;;5061742;28;20047;-42
2021/09/27 09:20:00;;;;;;;9.70;7.50;;;;;;;;;;5058421;28;20072;-43
2021/09/27 09:22:29;;;;;;;11.05;7.00;;;;;;;;;;5053052;28;20530;-45
2021/09/27 09:24:56;;;;;;;9.32;7.85;;;;;;;;;;5045536;28;20128;-47
2021/09/27 09:27:23;;;;;;;11.77;8.13;;;;;;;;;;5052911;28;20536;-43
2021/09/27 09:29:50;;;;;;;9.63;7.07;;;;;;;;;;5051673;28;20037;-43
2021/09/27 09:32:20;;;;;;;10.13;7.53;;;;;;;;;;5065457;28;20489;-46
2021/09/27 09:34:48;;;;;;;11.30;8.15;;;;;;;;;;5066852;28;20494;-44
2021/09/27 09:37:37;;;;;;;9.10;7.78;;;;;;;;;;5056121;28;20044;-44
2021/09/27 09:40:06;;;;;;;8.73;7.40;;;;;;;;;;5050611;28;20047;-44
2021/09/27 09:42:34;;;;;;;11.30;8.00;;;;;;;;;;5048407;28;20037;-43
2021/09/27 09:45:15;;;;;;;10.73;7.40;;;;;;;;;;5051867;28;20052;-44
2021/09/27 09:47:42;;;;;;;11.40;6.90;;;;;;;;;;5052367;28;20413;-45
2021/09/27 09:50:11;;;;;;;9.43;7.40;;;;;;;;;;5051664;28;20037;-45
2021/09/27 09:52:47;;;;;;;9.38;7.28;;;;;;;;;;5032817;28;20549;-49
2021/09/27 09:55:31;;;;;;;10.32;7.18;;;;;;;;;;5032401;28;20042;-47
2021/09/27 09:58:34;;;;;;;8.82;7.07;;;;;;;;;;5032476;28;20050;-46
2021/09/27 10:01:17;;;;;;;8.15;6.45;;;;;;;;;;5009950;28;20050;-48
2021/09/27 10:03:46;;;;;;;9.63;6.95;;;;;;;;;;5030292;28;20566;-47
2021/09/27 10:06:15;;;;;;;10.07;7.07;;;;;;;;;;5032162;28;20041;-47
2021/09/27 10:08:53;;;;;;;9.27;6.60;;;;;;;;;;5031852;28;20128;-48
2021/09/27 10:11:40;;;;;;;7.60;6.50;;;;;;;;;;5032238;28;20045;-49
2021/09/27 10:14:24;;;;;;;7.68;6.70;;;;;;;;;;5031422;28;20049;-48
2021/09/27 10:16:53;;;;;;;8.95;6.97;;;;;;;;;;5031677;28;20049;-46
2021/09/27 10:19:23;;;;;;;7.30;6.32;;;;;;;;;;5031781;28;20075;-46
2021/09/27 10:21:51;;;;;;;8.02;6.55;;;;;;;;;;5032150;28;20132;-46
2021/09/27 10:24:19;;;;;;;9.80;6.93;;;;;;;;;;5031775;28;20112;-45
2021/09/27 10:26:49;;;;;;;8.60;6.75;;;;;;;;;;5031419;28;20049;-47
2021/09/27 10:29:20;;;;;;;8.68;6.80;;;;;;;;;;5031595;28;20483;-46
2021/09/27 10:31:55;;;;;;;7.35;5.95;;;;;;;;;;5031927;28;20128;-46
2021/09/27 10:34:22;;;;;;;7.00;6.28;;;;;;;;;;5031404;28;20045;-48
2021/09/27 10:36:56;;;;;;;11.00;7.25;;;;;;;;;;5031551;28;20040;-51
2021/09/27 10:39:23;;;;;;;8.15;6.95;;;;;;;;;;5031747;28;20041;-49
2021/09/27 10:42:05;;;;;;;8.95;6.63;;;;;;;;;;5031692;28;20049;-47
2021/09/27 10:44:39;;;;;;;8.32;6.60;;;;;;;;;;5031303;28;20041;-49
2021/09/27 10:47:18;;;;;;;7.47;6.68;;;;;;;;;;5032065;28;20045;-48
2021/09/27 10:49:47;;;;;;;8.45;6.65;;;;;;;;;;5031387;28;20060;-48
2021/09/27 10:52:17;;;;;;;8.63;6.57;;;;;;;;;;5031133;28;20045;-49
2021/09/27 10:55:04;;;;;;;7.55;6.25;;;;;;;;;;5031308;28;20116;-47
2021/09/27 10:57:45;;;;;;;8.30;6.13;;;;;;;;;;5024750;28;20153;-48
2021/09/27 11:00:16;;;;;;;7.72;5.82;;;;;;;;;;5031616;28;20045;-48
2021/09/27 11:02:46;;;;;;;8.07;6.22;;;;;;;;;;5031411;28;20049;-47
2021/09/27 11:05:18;;;;;;;8.80;6.40;;;;;;;;;;5031101;28;20041;-49
2021/09/27 11:07:48;;;;;;;8.20;6.47;;;;;;;;;;5031348;28;20744;-47
2021/09/27 11:10:45;;;;;;;8.23;6.43;;;;;;;;;;5031612;28;20063;-45
2021/09/27 11:13:32;;;;;;;7.45;6.47;;;;;;;;;;5030991;28;20402;-46
2021/09/27 11:15:59;;;;;;;7.53;6.40;;;;;;;;;;5024012;28;20124;-48
2021/09/27 11:18:28;;;;;;;6.68;5.95;;;;;;;;;;5031219;28;20037;-47
2021/09/27 11:21:14;;;;;;;7.00;6.18;;;;;;;;;;5030851;28;20132;-47
2021/09/27 11:23:41;;;;;;;10.75;6.55;;;;;;;;;;5030852;28;20057;-46
2021/09/27 11:26:20;;;;;;;7.32;6.40;;;;;;;;;;5031129;28;20075;-49
2021/09/27 11:28:48;;;;;;;8.00;5.82;;;;;;;;;;5034491;28;20064;-46
2021/09/27 11:31:21;;;;;;;8.63;6.07;;;;;;;;;;5035008;28;20495;-45
2021/09/27 11:33:52;;;;;;;7.68;6.22;;;;;;;;;;5034913;28;20041;-44
2021/09/27 11:36:24;;;;;;;8.63;5.95;;;;;;;;;;5034878;28;20439;-48
2021/09/27 11:39:11;;;;;;;7.60;6.30;;;;;;;;;;5034547;28;20038;-47
2021/09/27 11:41:39;;;;;;;8.02;6.13;;;;;;;;;;5035076;28;20507;-50
2021/09/27 11:44:06;;;;;;;7.03;6.20;;;;;;;;;;5034833;28;20152;-48
2021/09/27 11:46:34;;;;;;;9.23;6.05;;;;;;;;;;5034358;28;20137;-46
2021/09/27 11:49:07;;;;;;;7.57;6.28;;;;;;;;;;5034447;28;20123;-48
2021/09/27 11:51:39;;;;;;;7.38;6.47;;;;;;;;;;5034712;28;20120;-47
2021/09/27 11:54:05;;;;;;;7.25;6.45;;;;;;;;;;5034768;28;20064;-50
2021/09/27 11:56:35;;;;;;;9.80;6.45;;;;;;;;;;5034643;28;20044;-49
2021/09/27 11:59:13;;;;;;;7.43;6.55;;;;;;;;;;5034623;28;20129;-47
2021/09/27 12:02:16;;;;;;;7.85;7.05;;;;;;;;;;5034696;28;20048;-48
2021/09/27 12:04:42;;;;;;;8.30;6.75;;;;;;;;;;4992579;28;20500;-48
2021/09/27 12:07:12;;;;;;;7.25;6.45;;;;;;;;;;5026153;28;20054;-49
2021/09/27 12:09:41;;;;;;;8.57;6.65;;;;;;;;;;5048415;28;20041;-48
2021/09/27 12:12:18;;;;;;;8.10;6.60;;;;;;;;;;5034402;28;20056;-49
2021/09/27 12:14:47;;;;;;;6.93;5.78;;;;;;;;;;5034139;28;20118;-48
2021/09/27 12:17:16;;;;;;;7.70;6.10;;;;;;;;;;5034276;28;20517;-48
2021/09/27 12:19:56;;;;;;;7.68;5.75;;;;;;;;;;5034500;28;20034;-51
2021/09/27 12:22:31;;;;;;;8.60;6.03;;;;;;;;;;5034374;28;20045;-52
2021/09/27 12:24:59;;;;;;;6.32;5.47;;;;;;;;;;5033901;28;20072;-48
2021/09/27 12:27:27;;;;;;;6.70;5.72;;;;;;;;;;5034192;28;20498;-47
2021/09/27 12:29:54;;;;;;;6.45;5.63;;;;;;;;;;5033935;28;20133;-46
2021/09/27 12:32:30;;;;;;;6.85;5.75;;;;;;;;;;5034489;28;20051;-47
2021/09/27 12:34:59;;;;;;;6.63;5.97;;;;;;;;;;5033870;28;20048;-47
2021/09/27 12:37:32;;;;;;;6.65;5.95;;;;;;;;;;5033687;28;20034;-47
2021/09/27 12:39:59;;;;;;;7.22;6.13;;;;;;;;;;5033654;28;20088;-47
2021/09/27 12:42:28;;;;;;;7.10;5.75;;;;;;;;;;5033882;28;20117;-47
2021/09/27 12:45:03;;;;;;;7.25;6.15;;;;;;;;;;5033419;28;20052;-48
2021/09/27 12:47:30;;;;;;;8.95;6.72;;;;;;;;;;5033391;28;20045;-46
2021/09/27 12:49:59;;;;;;;7.35;5.93;;;;;;;;;;5033381;28;20045;-47
2021/09/27 12:52:34;;;;;;;6.18;5.38;;;;;;;;;;5033335;28;20052;-51
2021/09/27 12:55:03;;;;;;;7.82;6.22;;;;;;;;;;5032877;28;20052;-48
2021/09/27 12:57:44;;;;;;;8.35;5.72;;;;;;;;;;5033193;28;20041;-46
2021/09/27 13:00:17;;;;;;;8.82;6.15;;;;;;;;;;5032996;28;20076;-47
2021/09/27 13:02:45;;;;;;;8.85;6.13;;;;;;;;;;5033177;28;20125;-47
2021/09/27 13:05:12;;;;;;;6.68;5.97;;;;;;;;;;5032982;28;20487;-47
2021/09/27 13:07:43;;;;;;;7.63;5.78;;;;;;;;;;5033461;28;20436;-46
2021/09/27 13:10:24;;;;;;;7.50;6.07;;;;;;;;;;5033110;28;20079;-47
2021/09/27 13:13:09;;;;;;;7.38;6.60;;;;;;;;;;5033142;28;20442;-46
2021/09/27 13:15:38;;;;;;;7.47;6.68;;;;;;;;;;5033342;28;20051;-51
2021/09/27 13:18:12;;;;;;;7.88;5.80;;;;;;;;;;5033474;28;20128;-46
2021/09/27 13:20:49;;;;;;;9.45;6.28;;;;;;;;;;5033517;28;20410;-48
2021/09/27 13:23:22;;;;;;;8.50;6.07;;;;;;;;;;5033878;28;20108;-47
2021/09/27 13:25:54;;;;;;;6.70;6.00;;;;;;;;;;5034617;28;20048;-45
2021/09/27 13:28:41;;;;;;;6.88;6.18;;;;;;;;;;5033538;28;20049;-46
2021/09/27 13:31:08;;;;;;;12.32;6.55;;;;;;;;;;5032805;28;20038;-45
2021/09/27 13:33:40;;;;;;;7.28;5.82;;;;;;;;;;5033092;28;20696;-46
2021/09/27 13:36:09;;;;;;;6.53;5.32;;;;;;;;;;5033114;28;20135;-49
2021/09/27 13:38:39;;;;;;;6.43;5.60;;;;;;;;;;5033113;28;20038;-48
2021/09/27 13:41:10;;;;;;;8.23;6.10;;;;;;;;;;5031414;28;20084;-50
2021/09/27 13:43:40;;;;;;;8.13;5.60;;;;;;;;;;5032109;28;20415;-46
2021/09/27 13:46:06;;;;;;;6.35;5.60;;;;;;;;;;5032391;28;20045;-48
2021/09/27 13:48:33;;;;;;;6.18;5.50;;;;;;;;;;5039620;28;20521;-46
2021/09/27 13:51:00;;;;;;;6.55;5.60;;;;;;;;;;5051742;28;20037;-44
2021/09/27 13:53:36;;;;;;;7.10;5.55;;;;;;;;;;5052284;28;20037;-51
2021/09/27 13:56:04;;;;;;;9.98;5.50;;;;;;;;;;5043677;28;20064;-48
2021/09/27 13:58:31;;;;;;;13.63;6.03;;;;;;;;;;5032146;28;20052;-46
2021/09/27 14:00:58;;;;;;;13.73;6.15;;;;;;;;;;5032171;28;20049;-46
2021/09/27 14:03:28;;;;;;;6.63;5.40;;;;;;;;;;5031791;28;20206;-49
2021/09/27 14:05:57;;;;;;;7.45;5.85;;;;;;;;;;5032206;28;20087;-47
2021/09/27 14:08:24;;;;;;;8.10;6.03;;;;;;;;;;5031874;28;20116;-50
2021/09/27 14:10:51;;;;;;;6.47;5.40;;;;;;;;;;5032147;28;20049;-50
2021/09/27 14:13:19;;;;;;;7.78;5.97;;;;;;;;;;5031821;28;20123;-45
2021/09/27 14:15:47;;;;;;;7.72;6.20;;;;;;;;;;5030433;28;20049;-48
2021/09/27 14:18:14;;;;;;;6.88;5.60;;;;;;;;;;5031788;28;20087;-49
2021/09/27 14:20:46;;;;;;;8.43;5.68;;;;;;;;;;5032120;28;20067;-51
2021/09/27 14:23:13;;;;;;;6.75;5.38;;;;;;;;;;5031685;28;20671;-50
2021/09/27 14:25:41;;;;;;;7.32;5.28;;;;;;;;;;5032087;28;20041;-49
2021/09/27 14:28:08;;;;;;;7.72;5.50;;;;;;;;;;5030666;28;20084;-46
2021/09/27 14:30:35;;;;;;;5.80;5.20;;;;;;;;;;5031982;28;20415;-45
2021/09/27 14:33:05;;;;;;;7.15;5.40;;;;;;;;;;5031387;28;20131;-47
2021/09/27 14:35:34;;;;;;;7.18;5.32;;;;;;;;;;5031516;28;20411;-47
2021/09/27 14:38:01;;;;;;;7.57;5.38;;;;;;;;;;5041012;28;20137;-47
2021/09/27 14:40:27;;;;;;;6.55;5.82;;;;;;;;;;5031635;28;20414;-47
2021/09/27 14:42:54;;;;;;;7.65;6.07;;;;;;;;;;5031391;28;20048;-49
2021/09/27 14:45:21;;;;;;;6.45;5.38;;;;;;;;;;5029908;28;20038;-47
2021/09/27 14:47:48;;;;;;;7.22;5.90;;;;;;;;;;5031739;28;20042;-47
2021/09/27 14:50:21;;;;;;;6.28;5.20;;;;;;;;;;5030417;28;20088;-50
2021/09/27 14:52:48;;;;;;;6.45;5.40;;;;;;;;;;5031205;28;20103;-48
2021/09/27 14:55:16;;;;;;;9.30;5.60;;;;;;;;;;5031305;28;20414;-47
2021/09/27 14:57:43;;;;;;;7.93;5.20;;;;;;;;;;5031227;28;20041;-46
2021/09/27 15:00:11;;;;;;;6.65;5.15;;;;;;;;;;5031202;28;20425;-48